sensor_id;sensor_type;location;lat;lon;timestamp;P1;durP1;ratioP1;P2;durP2;ratioP2
41719;SDS011;27405;53.316;-6.294;2023-05-07T00:00:36;16.33;;;4.30;;
41719;SDS011;27405;53.316;-6.294;2023-05-07T00:03:02;11.85;;;4.35;;
41719;SDS011;27405;53.316;-6.294;2023-05-07T00:05:28;16.58;;;4.63;;
41719;SDS011;27405;53.316;-6.294;2023-05-07T00:07:54;15.40;;;4.03;;
41719;SDS011;27405;53.316;-6.294;2023-05-07T00:10:20;14.68;;;3.78;;
41719;SDS011;27405;53.316;-6.294;2023-05-07T00:12:46;16.75;;;4.13;;
41719;SDS011;27405;53.316;-6.294;2023-05-07T00:15:11;18.23;;;4.50;;
41719;SDS011;27405;53.316;-6.294;2023-05-07T00:17:37;14.25;;;4.20;;
41719;SDS011;27405;53.316;-6.294;2023-05-07T00:20:03;20.60;;;4.80;;
41719;SDS011;27405;53.316;-6.294;2023-05-07T00:22:30;17.30;;;4.70;;
41719;SDS011;27405;53.316;-6.294;2023-05-07T00:24:57;15.55;;;4.47;;
41719;SDS011;27405;53.316;-6.294;2023-05-07T00:27:23;17.85;;;4.53;;
41719;SDS011;27405;53.316;-6.294;2023-05-07T00:29:50;17.80;;;4.38;;
41719;SDS011;27405;53.316;-6.294;2023-05-07T00:32:15;13.75;;;4.30;;
41719;SDS011;27405;53.316;-6.294;2023-05-07T00:34:42;17.40;;;4.47;;
41719;SDS011;27405;53.316;-6.294;2023-05-07T00:37:08;18.77;;;4.93;;
41719;SDS011;27405;53.316;-6.294;2023-05-07T00:39:34;19.98;;;5.00;;
41719;SDS011;27405;53.316;-6.294;2023-05-07T00:42:00;16.85;;;4.72;;
41719;SDS011;27405;53.316;-6.294;2023-05-07T00:44:26;20.40;;;5.13;;
41719;SDS011;27405;53.316;-6.294;2023-05-07T00:46:53;18.10;;;4.90;;
41719;SDS011;27405;53.316;-6.294;2023-05-07T00:49:19;13.90;;;4.10;;
41719;SDS011;27405;53.316;-6.294;2023-05-07T00:51:45;16.77;;;4.22;;
41719;SDS011;27405;53.316;-6.294;2023-05-07T00:54:12;17.48;;;4.25;;
41719;SDS011;27405;53.316;-6.294;2023-05-07T00:56:38;20.35;;;4.65;;
41719;SDS011;27405;53.316;-6.294;2023-05-07T00:59:05;15.10;;;4.13;;
41719;SDS011;27405;53.316;-6.294;2023-05-07T01:01:31;14.68;;;3.70;;
41719;SDS011;27405;53.316;-6.294;2023-05-07T01:03:57;17.05;;;4.30;;
41719;SDS011;27405;53.316;-6.294;2023-05-07T01:06:23;13.18;;;3.83;;
41719;SDS011;27405;53.316;-6.294;2023-05-07T01:08:52;14.32;;;3.60;;
41719;SDS011;27405;53.316;-6.294;2023-05-07T01:11:21;7.85;;;3.33;;
41719;SDS011;27405;53.316;-6.294;2023-05-07T01:13:47;12.20;;;3.53;;
41719;SDS011;27405;53.316;-6.294;2023-05-07T01:16:15;11.38;;;3.28;;
41719;SDS011;27405;53.316;-6.294;2023-05-07T01:18:41;16.98;;;4.13;;
41719;SDS011;27405;53.316;-6.294;2023-05-07T01:21:06;11.20;;;3.40;;
41719;SDS011;27405;53.316;-6.294;2023-05-07T01:23:35;13.63;;;4.35;;
41719;SDS011;27405;53.316;-6.294;2023-05-07T01:26:01;13.60;;;3.70;;
41719;SDS011;27405;53.316;-6.294;2023-05-07T01:28:27;14.10;;;3.88;;
41719;SDS011;27405;53.316;-6.294;2023-05-07T01:30:53;13.18;;;3.72;;
41719;SDS011;27405;53.316;-6.294;2023-05-07T01:33:24;18.05;;;3.55;;
41719;SDS011;27405;53.316;-6.294;2023-05-07T01:35:52;13.70;;;4.05;;
41719;SDS011;27405;53.316;-6.294;2023-05-07T01:38:19;10.52;;;3.40;;
41719;SDS011;27405;53.316;-6.294;2023-05-07T01:40:46;10.45;;;3.10;;
41719;SDS011;27405;53.316;-6.294;2023-05-07T01:43:12;13.23;;;3.17;;
41719;SDS011;27405;53.316;-6.294;2023-05-07T01:45:38;15.48;;;4.07;;
41719;SDS011;27405;53.316;-6.294;2023-05-07T01:48:05;15.98;;;4.05;;
41719;SDS011;27405;53.316;-6.294;2023-05-07T01:50:33;14.68;;;4.88;;
41719;SDS011;27405;53.316;-6.294;2023-05-07T01:52:59;16.48;;;4.78;;
41719;SDS011;27405;53.316;-6.294;2023-05-07T01:55:26;13.13;;;4.10;;
41719;SDS011;27405;53.316;-6.294;2023-05-07T01:57:52;11.77;;;3.45;;
41719;SDS011;27405;53.316;-6.294;2023-05-07T02:00:18;12.55;;;3.60;;
41719;SDS011;27405;53.316;-6.294;2023-05-07T02:02:44;11.52;;;2.95;;
41719;SDS011;27405;53.316;-6.294;2023-05-07T02:05:09;12.85;;;3.40;;
41719;SDS011;27405;53.316;-6.294;2023-05-07T02:07:35;11.15;;;3.40;;
41719;SDS011;27405;53.316;-6.294;2023-05-07T02:10:01;10.68;;;3.40;;
41719;SDS011;27405;53.316;-6.294;2023-05-07T02:12:28;11.55;;;3.40;;
41719;SDS011;27405;53.316;-6.294;2023-05-07T02:14:53;15.80;;;3.83;;
41719;SDS011;27405;53.316;-6.294;2023-05-07T02:17:19;8.13;;;3.15;;
41719;SDS011;27405;53.316;-6.294;2023-05-07T02:19:45;11.63;;;3.13;;
41719;SDS011;27405;53.316;-6.294;2023-05-07T02:22:10;11.43;;;3.08;;
41719;SDS011;27405;53.316;-6.294;2023-05-07T02:24:36;11.43;;;3.10;;
41719;SDS011;27405;53.316;-6.294;2023-05-07T02:27:02;9.27;;;3.15;;
41719;SDS011;27405;53.316;-6.294;2023-05-07T02:29:28;9.07;;;3.25;;
41719;SDS011;27405;53.316;-6.294;2023-05-07T02:31:54;13.75;;;3.03;;
41719;SDS011;27405;53.316;-6.294;2023-05-07T02:34:20;10.00;;;2.92;;
41719;SDS011;27405;53.316;-6.294;2023-05-07T02:36:46;10.13;;;3.15;;
41719;SDS011;27405;53.316;-6.294;2023-05-07T02:39:12;11.25;;;3.22;;
41719;SDS011;27405;53.316;-6.294;2023-05-07T02:41:38;11.32;;;3.05;;
41719;SDS011;27405;53.316;-6.294;2023-05-07T02:44:04;9.55;;;2.97;;
41719;SDS011;27405;53.316;-6.294;2023-05-07T02:46:30;10.07;;;3.15;;
41719;SDS011;27405;53.316;-6.294;2023-05-07T02:48:56;9.88;;;2.70;;
41719;SDS011;27405;53.316;-6.294;2023-05-07T02:51:22;10.70;;;3.03;;
41719;SDS011;27405;53.316;-6.294;2023-05-07T02:53:48;10.05;;;2.55;;
41719;SDS011;27405;53.316;-6.294;2023-05-07T02:56:13;12.00;;;3.08;;
41719;SDS011;27405;53.316;-6.294;2023-05-07T02:58:39;10.23;;;2.90;;
41719;SDS011;27405;53.316;-6.294;2023-05-07T03:01:05;11.00;;;3.13;;
41719;SDS011;27405;53.316;-6.294;2023-05-07T03:03:31;8.77;;;3.20;;
41719;SDS011;27405;53.316;-6.294;2023-05-07T03:05:57;8.73;;;2.85;;
41719;SDS011;27405;53.316;-6.294;2023-05-07T03:08:22;12.10;;;3.30;;
41719;SDS011;27405;53.316;-6.294;2023-05-07T03:10:48;9.77;;;3.05;;
41719;SDS011;27405;53.316;-6.294;2023-05-07T03:13:14;10.05;;;2.65;;
41719;SDS011;27405;53.316;-6.294;2023-05-07T03:15:40;8.93;;;3.03;;
41719;SDS011;27405;53.316;-6.294;2023-05-07T03:18:05;13.18;;;3.45;;
41719;SDS011;27405;53.316;-6.294;2023-05-07T03:20:31;10.55;;;2.60;;
41719;SDS011;27405;53.316;-6.294;2023-05-07T03:22:57;11.00;;;2.58;;
41719;SDS011;27405;53.316;-6.294;2023-05-07T03:25:23;9.05;;;2.55;;
41719;SDS011;27405;53.316;-6.294;2023-05-07T03:27:49;8.30;;;2.28;;
41719;SDS011;27405;53.316;-6.294;2023-05-07T03:30:14;9.75;;;2.58;;
41719;SDS011;27405;53.316;-6.294;2023-05-07T03:32:40;10.18;;;2.90;;
41719;SDS011;27405;53.316;-6.294;2023-05-07T03:35:06;8.20;;;2.50;;
41719;SDS011;27405;53.316;-6.294;2023-05-07T03:37:32;7.90;;;2.38;;
41719;SDS011;27405;53.316;-6.294;2023-05-07T03:39:58;10.13;;;2.88;;
41719;SDS011;27405;53.316;-6.294;2023-05-07T03:42:24;8.75;;;2.67;;
41719;SDS011;27405;53.316;-6.294;2023-05-07T03:44:49;8.98;;;2.65;;
41719;SDS011;27405;53.316;-6.294;2023-05-07T03:47:15;10.05;;;3.10;;
41719;SDS011;27405;53.316;-6.294;2023-05-07T03:49:41;6.63;;;2.63;;
41719;SDS011;27405;53.316;-6.294;2023-05-07T03:52:06;11.20;;;2.97;;
41719;SDS011;27405;53.316;-6.294;2023-05-07T03:54:32;9.57;;;2.53;;
41719;SDS011;27405;53.316;-6.294;2023-05-07T03:56:58;10.75;;;2.78;;
41719;SDS011;27405;53.316;-6.294;2023-05-07T03:59:24;8.07;;;2.35;;
41719;SDS011;27405;53.316;-6.294;2023-05-07T04:01:49;5.85;;;1.90;;
41719;SDS011;27405;53.316;-6.294;2023-05-07T04:04:15;8.43;;;2.30;;
41719;SDS011;27405;53.316;-6.294;2023-05-07T04:06:41;7.55;;;2.17;;
41719;SDS011;27405;53.316;-6.294;2023-05-07T04:09:07;9.40;;;2.20;;
41719;SDS011;27405;53.316;-6.294;2023-05-07T04:11:33;7.10;;;2.28;;
41719;SDS011;27405;53.316;-6.294;2023-05-07T04:14:00;10.38;;;1.90;;
41719;SDS011;27405;53.316;-6.294;2023-05-07T04:16:25;7.90;;;1.80;;
41719;SDS011;27405;53.316;-6.294;2023-05-07T04:18:51;6.60;;;2.03;;
41719;SDS011;27405;53.316;-6.294;2023-05-07T04:21:17;8.18;;;1.90;;
41719;SDS011;27405;53.316;-6.294;2023-05-07T04:23:44;6.20;;;1.65;;
41719;SDS011;27405;53.316;-6.294;2023-05-07T04:26:10;5.15;;;1.95;;
41719;SDS011;27405;53.316;-6.294;2023-05-07T04:28:36;6.00;;;1.70;;
41719;SDS011;27405;53.316;-6.294;2023-05-07T04:31:03;6.00;;;1.67;;
41719;SDS011;27405;53.316;-6.294;2023-05-07T04:33:29;7.35;;;2.00;;
41719;SDS011;27405;53.316;-6.294;2023-05-07T04:35:55;4.60;;;1.70;;
41719;SDS011;27405;53.316;-6.294;2023-05-07T04:38:20;5.82;;;1.92;;
41719;SDS011;27405;53.316;-6.294;2023-05-07T04:40:48;10.55;;;4.50;;
41719;SDS011;27405;53.316;-6.294;2023-05-07T04:43:14;10.40;;;2.50;;
41719;SDS011;27405;53.316;-6.294;2023-05-07T04:45:41;5.38;;;1.80;;
41719;SDS011;27405;53.316;-6.294;2023-05-07T04:48:07;4.72;;;2.20;;
41719;SDS011;27405;53.316;-6.294;2023-05-07T04:50:34;6.82;;;2.00;;
41719;SDS011;27405;53.316;-6.294;2023-05-07T04:53:00;6.07;;;1.80;;
41719;SDS011;27405;53.316;-6.294;2023-05-07T04:55:26;8.30;;;2.00;;
41719;SDS011;27405;53.316;-6.294;2023-05-07T04:57:52;4.55;;;1.90;;
41719;SDS011;27405;53.316;-6.294;2023-05-07T05:00:18;5.30;;;1.83;;
41719;SDS011;27405;53.316;-6.294;2023-05-07T05:02:44;6.75;;;1.73;;
41719;SDS011;27405;53.316;-6.294;2023-05-07T05:05:10;8.10;;;1.95;;
41719;SDS011;27405;53.316;-6.294;2023-05-07T05:07:36;7.72;;;2.10;;
41719;SDS011;27405;53.316;-6.294;2023-05-07T05:10:02;8.50;;;2.15;;
41719;SDS011;27405;53.316;-6.294;2023-05-07T05:12:30;5.32;;;2.30;;
41719;SDS011;27405;53.316;-6.294;2023-05-07T05:14:56;6.38;;;2.08;;
41719;SDS011;27405;53.316;-6.294;2023-05-07T05:17:23;7.10;;;1.73;;
41719;SDS011;27405;53.316;-6.294;2023-05-07T05:19:48;7.45;;;2.00;;
41719;SDS011;27405;53.316;-6.294;2023-05-07T05:22:14;7.53;;;2.00;;
41719;SDS011;27405;53.316;-6.294;2023-05-07T05:24:40;6.22;;;1.80;;
41719;SDS011;27405;53.316;-6.294;2023-05-07T05:27:06;9.73;;;2.15;;
41719;SDS011;27405;53.316;-6.294;2023-05-07T05:29:31;9.27;;;1.85;;
41719;SDS011;27405;53.316;-6.294;2023-05-07T05:31:57;6.90;;;1.85;;
41719;SDS011;27405;53.316;-6.294;2023-05-07T05:34:22;7.22;;;1.70;;
41719;SDS011;27405;53.316;-6.294;2023-05-07T05:36:48;4.63;;;1.70;;
41719;SDS011;27405;53.316;-6.294;2023-05-07T05:39:14;7.95;;;1.95;;
41719;SDS011;27405;53.316;-6.294;2023-05-07T05:41:40;5.18;;;1.80;;
41719;SDS011;27405;53.316;-6.294;2023-05-07T05:44:06;6.30;;;1.60;;
41719;SDS011;27405;53.316;-6.294;2023-05-07T05:46:32;3.38;;;1.52;;
41719;SDS011;27405;53.316;-6.294;2023-05-07T05:48:57;4.93;;;1.70;;
41719;SDS011;27405;53.316;-6.294;2023-05-07T05:51:23;5.70;;;1.90;;
41719;SDS011;27405;53.316;-6.294;2023-05-07T05:53:49;7.72;;;1.73;;
41719;SDS011;27405;53.316;-6.294;2023-05-07T05:56:15;6.43;;;1.92;;
41719;SDS011;27405;53.316;-6.294;2023-05-07T05:58:41;5.75;;;1.75;;
41719;SDS011;27405;53.316;-6.294;2023-05-07T06:01:07;5.47;;;1.90;;
41719;SDS011;27405;53.316;-6.294;2023-05-07T06:03:33;5.72;;;1.98;;
41719;SDS011;27405;53.316;-6.294;2023-05-07T06:05:58;5.45;;;1.63;;
41719;SDS011;27405;53.316;-6.294;2023-05-07T06:08:25;7.35;;;1.88;;
41719;SDS011;27405;53.316;-6.294;2023-05-07T06:10:53;7.32;;;1.58;;
41719;SDS011;27405;53.316;-6.294;2023-05-07T06:13:19;4.35;;;1.48;;
41719;SDS011;27405;53.316;-6.294;2023-05-07T06:15:45;5.72;;;1.90;;
41719;SDS011;27405;53.316;-6.294;2023-05-07T06:18:10;6.60;;;2.00;;
41719;SDS011;27405;53.316;-6.294;2023-05-07T06:20:36;4.47;;;1.85;;
41719;SDS011;27405;53.316;-6.294;2023-05-07T06:23:02;8.55;;;2.05;;
41719;SDS011;27405;53.316;-6.294;2023-05-07T06:25:27;4.53;;;1.80;;
41719;SDS011;27405;53.316;-6.294;2023-05-07T06:27:53;4.65;;;1.85;;
41719;SDS011;27405;53.316;-6.294;2023-05-07T06:30:19;5.75;;;1.67;;
41719;SDS011;27405;53.316;-6.294;2023-05-07T06:32:44;3.47;;;1.70;;
41719;SDS011;27405;53.316;-6.294;2023-05-07T06:35:10;6.68;;;1.90;;
41719;SDS011;27405;53.316;-6.294;2023-05-07T06:37:35;6.18;;;1.67;;
41719;SDS011;27405;53.316;-6.294;2023-05-07T06:40:04;6.38;;;1.73;;
41719;SDS011;27405;53.316;-6.294;2023-05-07T06:42:31;7.47;;;2.10;;
41719;SDS011;27405;53.316;-6.294;2023-05-07T06:44:56;5.72;;;1.60;;
41719;SDS011;27405;53.316;-6.294;2023-05-07T06:47:22;4.65;;;1.90;;
41719;SDS011;27405;53.316;-6.294;2023-05-07T06:49:48;5.95;;;1.70;;
41719;SDS011;27405;53.316;-6.294;2023-05-07T06:52:13;7.00;;;1.88;;
41719;SDS011;27405;53.316;-6.294;2023-05-07T06:54:39;7.13;;;2.33;;
41719;SDS011;27405;53.316;-6.294;2023-05-07T06:57:05;6.10;;;1.77;;
41719;SDS011;27405;53.316;-6.294;2023-05-07T06:59:30;9.40;;;2.00;;
41719;SDS011;27405;53.316;-6.294;2023-05-07T07:01:56;6.28;;;2.10;;
41719;SDS011;27405;53.316;-6.294;2023-05-07T07:04:22;4.97;;;1.52;;
41719;SDS011;27405;53.316;-6.294;2023-05-07T07:06:48;7.88;;;1.85;;
41719;SDS011;27405;53.316;-6.294;2023-05-07T07:09:14;7.88;;;1.90;;
41719;SDS011;27405;53.316;-6.294;2023-05-07T07:11:40;6.85;;;1.80;;
41719;SDS011;27405;53.316;-6.294;2023-05-07T07:14:05;5.20;;;1.70;;
41719;SDS011;27405;53.316;-6.294;2023-05-07T07:16:31;5.10;;;1.48;;
41719;SDS011;27405;53.316;-6.294;2023-05-07T07:18:57;9.80;;;2.00;;
41719;SDS011;27405;53.316;-6.294;2023-05-07T07:21:22;5.80;;;1.55;;
41719;SDS011;27405;53.316;-6.294;2023-05-07T07:23:48;5.32;;;1.80;;
41719;SDS011;27405;53.316;-6.294;2023-05-07T07:26:14;5.72;;;1.92;;
41719;SDS011;27405;53.316;-6.294;2023-05-07T07:28:43;5.05;;;1.75;;
41719;SDS011;27405;53.316;-6.294;2023-05-07T07:31:09;6.68;;;2.30;;
41719;SDS011;27405;53.316;-6.294;2023-05-07T07:33:35;6.97;;;2.13;;
41719;SDS011;27405;53.316;-6.294;2023-05-07T07:36:01;7.88;;;2.17;;
41719;SDS011;27405;53.316;-6.294;2023-05-07T07:38:27;4.65;;;1.90;;
41719;SDS011;27405;53.316;-6.294;2023-05-07T07:40:53;7.28;;;2.03;;
41719;SDS011;27405;53.316;-6.294;2023-05-07T07:43:18;5.10;;;1.80;;
41719;SDS011;27405;53.316;-6.294;2023-05-07T07:45:44;4.43;;;1.60;;
41719;SDS011;27405;53.316;-6.294;2023-05-07T07:48:11;5.30;;;1.90;;
41719;SDS011;27405;53.316;-6.294;2023-05-07T07:50:36;3.85;;;1.52;;
41719;SDS011;27405;53.316;-6.294;2023-05-07T07:53:02;8.82;;;2.20;;
41719;SDS011;27405;53.316;-6.294;2023-05-07T07:55:28;6.22;;;1.83;;
41719;SDS011;27405;53.316;-6.294;2023-05-07T07:57:56;6.15;;;1.80;;
41719;SDS011;27405;53.316;-6.294;2023-05-07T08:00:21;5.53;;;1.65;;
41719;SDS011;27405;53.316;-6.294;2023-05-07T08:02:47;6.97;;;1.80;;
41719;SDS011;27405;53.316;-6.294;2023-05-07T08:05:13;5.53;;;1.77;;
41719;SDS011;27405;53.316;-6.294;2023-05-07T08:07:38;7.55;;;1.90;;
41719;SDS011;27405;53.316;-6.294;2023-05-07T08:10:04;5.15;;;1.80;;
41719;SDS011;27405;53.316;-6.294;2023-05-07T08:12:30;4.72;;;1.50;;
41719;SDS011;27405;53.316;-6.294;2023-05-07T08:14:56;6.22;;;1.60;;
41719;SDS011;27405;53.316;-6.294;2023-05-07T08:17:21;6.93;;;1.67;;
41719;SDS011;27405;53.316;-6.294;2023-05-07T08:19:47;3.50;;;1.52;;
41719;SDS011;27405;53.316;-6.294;2023-05-07T08:22:13;5.88;;;1.52;;
41719;SDS011;27405;53.316;-6.294;2023-05-07T08:24:39;5.20;;;1.40;;
41719;SDS011;27405;53.316;-6.294;2023-05-07T08:27:05;5.55;;;1.35;;
41719;SDS011;27405;53.316;-6.294;2023-05-07T08:29:31;3.75;;;1.70;;
41719;SDS011;27405;53.316;-6.294;2023-05-07T08:31:56;4.82;;;1.70;;
41719;SDS011;27405;53.316;-6.294;2023-05-07T08:34:22;7.22;;;1.80;;
41719;SDS011;27405;53.316;-6.294;2023-05-07T08:36:48;3.65;;;1.33;;
41719;SDS011;27405;53.316;-6.294;2023-05-07T08:39:16;5.70;;;1.70;;
41719;SDS011;27405;53.316;-6.294;2023-05-07T08:41:45;7.65;;;1.88;;
41719;SDS011;27405;53.316;-6.294;2023-05-07T08:44:12;5.63;;;1.40;;
41719;SDS011;27405;53.316;-6.294;2023-05-07T08:46:41;3.20;;;1.58;;
41719;SDS011;27405;53.316;-6.294;2023-05-07T08:49:11;6.35;;;1.80;;
41719;SDS011;27405;53.316;-6.294;2023-05-07T08:51:37;4.13;;;1.90;;
41719;SDS011;27405;53.316;-6.294;2023-05-07T08:54:03;6.97;;;2.33;;
41719;SDS011;27405;53.316;-6.294;2023-05-07T08:56:30;10.13;;;2.42;;
41719;SDS011;27405;53.316;-6.294;2023-05-07T08:58:56;7.75;;;1.90;;
41719;SDS011;27405;53.316;-6.294;2023-05-07T09:01:23;7.97;;;2.08;;
41719;SDS011;27405;53.316;-6.294;2023-05-07T09:03:50;8.00;;;2.00;;
41719;SDS011;27405;53.316;-6.294;2023-05-07T09:06:16;4.68;;;2.10;;
41719;SDS011;27405;53.316;-6.294;2023-05-07T09:08:48;4.22;;;1.90;;
41719;SDS011;27405;53.316;-6.294;2023-05-07T09:11:15;6.00;;;1.50;;
41719;SDS011;27405;53.316;-6.294;2023-05-07T09:13:41;4.20;;;1.67;;
41719;SDS011;27405;53.316;-6.294;2023-05-07T09:16:11;8.70;;;2.17;;
41719;SDS011;27405;53.316;-6.294;2023-05-07T09:18:41;9.25;;;2.00;;
41719;SDS011;27405;53.316;-6.294;2023-05-07T09:21:11;7.65;;;1.70;;
41719;SDS011;27405;53.316;-6.294;2023-05-07T09:23:40;5.75;;;1.60;;
41719;SDS011;27405;53.316;-6.294;2023-05-07T09:26:07;9.02;;;1.70;;
41719;SDS011;27405;53.316;-6.294;2023-05-07T09:28:40;6.15;;;1.83;;
41719;SDS011;27405;53.316;-6.294;2023-05-07T09:31:09;5.35;;;1.80;;
41719;SDS011;27405;53.316;-6.294;2023-05-07T09:33:36;5.22;;;1.70;;
41719;SDS011;27405;53.316;-6.294;2023-05-07T09:36:03;3.60;;;1.42;;
41719;SDS011;27405;53.316;-6.294;2023-05-07T09:38:30;5.40;;;2.20;;
41719;SDS011;27405;53.316;-6.294;2023-05-07T09:41:09;4.25;;;1.67;;
41719;SDS011;27405;53.316;-6.294;2023-05-07T09:43:38;6.03;;;1.85;;
41719;SDS011;27405;53.316;-6.294;2023-05-07T09:46:11;6.55;;;1.42;;
41719;SDS011;27405;53.316;-6.294;2023-05-07T09:48:39;8.60;;;2.05;;
41719;SDS011;27405;53.316;-6.294;2023-05-07T09:51:09;4.85;;;1.80;;
41719;SDS011;27405;53.316;-6.294;2023-05-07T09:53:43;5.75;;;1.70;;
41719;SDS011;27405;53.316;-6.294;2023-05-07T09:56:11;5.53;;;1.90;;
41719;SDS011;27405;53.316;-6.294;2023-05-07T09:58:38;6.60;;;1.38;;
41719;SDS011;27405;53.316;-6.294;2023-05-07T10:01:06;7.40;;;1.90;;
41719;SDS011;27405;53.316;-6.294;2023-05-07T10:03:32;4.90;;;1.63;;
41719;SDS011;27405;53.316;-6.294;2023-05-07T10:06:01;5.78;;;1.60;;
41719;SDS011;27405;53.316;-6.294;2023-05-07T10:08:28;5.75;;;1.60;;
41719;SDS011;27405;53.316;-6.294;2023-05-07T10:10:55;4.57;;;1.70;;
41719;SDS011;27405;53.316;-6.294;2023-05-07T10:13:21;4.50;;;1.35;;
41719;SDS011;27405;53.316;-6.294;2023-05-07T10:15:47;6.80;;;1.75;;
41719;SDS011;27405;53.316;-6.294;2023-05-07T10:18:13;6.55;;;2.33;;
41719;SDS011;27405;53.316;-6.294;2023-05-07T10:20:40;6.43;;;1.83;;
41719;SDS011;27405;53.316;-6.294;2023-05-07T10:23:07;4.28;;;1.50;;
41719;SDS011;27405;53.316;-6.294;2023-05-07T10:25:37;4.40;;;1.50;;
41719;SDS011;27405;53.316;-6.294;2023-05-07T10:28:07;8.70;;;2.05;;
41719;SDS011;27405;53.316;-6.294;2023-05-07T10:33:04;5.80;;;1.80;;
41719;SDS011;27405;53.316;-6.294;2023-05-07T10:35:40;6.53;;;1.83;;
41719;SDS011;27405;53.316;-6.294;2023-05-07T10:38:08;6.30;;;1.92;;
41719;SDS011;27405;53.316;-6.294;2023-05-07T10:40:34;13.38;;;1.90;;
41719;SDS011;27405;53.316;-6.294;2023-05-07T10:43:01;5.22;;;2.03;;
41719;SDS011;27405;53.316;-6.294;2023-05-07T10:45:31;7.40;;;2.03;;
41719;SDS011;27405;53.316;-6.294;2023-05-07T10:48:11;7.97;;;2.00;;
41719;SDS011;27405;53.316;-6.294;2023-05-07T10:50:38;5.20;;;1.70;;
41719;SDS011;27405;53.316;-6.294;2023-05-07T10:53:19;6.78;;;2.53;;
41719;SDS011;27405;53.316;-6.294;2023-05-07T10:55:50;5.68;;;1.60;;
41719;SDS011;27405;53.316;-6.294;2023-05-07T10:58:24;11.98;;;2.00;;
41719;SDS011;27405;53.316;-6.294;2023-05-07T11:00:56;10.13;;;1.98;;
41719;SDS011;27405;53.316;-6.294;2023-05-07T11:03:24;6.38;;;1.67;;
41719;SDS011;27405;53.316;-6.294;2023-05-07T11:11:49;7.07;;;2.03;;
41719;SDS011;27405;53.316;-6.294;2023-05-07T11:17:09;7.05;;;1.95;;
41719;SDS011;27405;53.316;-6.294;2023-05-07T11:19:48;7.60;;;2.13;;
41719;SDS011;27405;53.316;-6.294;2023-05-07T11:22:50;4.90;;;1.80;;
41719;SDS011;27405;53.316;-6.294;2023-05-07T11:25:09;4.93;;;2.08;;
41719;SDS011;27405;53.316;-6.294;2023-05-07T11:27:36;5.65;;;2.10;;
41719;SDS011;27405;53.316;-6.294;2023-05-07T11:30:01;9.15;;;2.30;;
41719;SDS011;27405;53.316;-6.294;2023-05-07T11:32:28;8.40;;;2.47;;
41719;SDS011;27405;53.316;-6.294;2023-05-07T11:34:55;9.50;;;2.20;;
41719;SDS011;27405;53.316;-6.294;2023-05-07T11:37:23;6.65;;;2.20;;
41719;SDS011;27405;53.316;-6.294;2023-05-07T11:39:49;6.85;;;2.35;;
41719;SDS011;27405;53.316;-6.294;2023-05-07T11:42:34;6.15;;;2.63;;
41719;SDS011;27405;53.316;-6.294;2023-05-07T11:45:02;7.43;;;2.30;;
41719;SDS011;27405;53.316;-6.294;2023-05-07T11:47:31;8.27;;;2.00;;
41719;SDS011;27405;53.316;-6.294;2023-05-07T11:49:57;5.43;;;2.15;;
41719;SDS011;27405;53.316;-6.294;2023-05-07T11:52:28;7.50;;;2.13;;
41719;SDS011;27405;53.316;-6.294;2023-05-07T11:54:55;5.72;;;2.35;;
41719;SDS011;27405;53.316;-6.294;2023-05-07T11:57:22;5.93;;;1.90;;
41719;SDS011;27405;53.316;-6.294;2023-05-07T11:59:52;6.68;;;2.13;;
41719;SDS011;27405;53.316;-6.294;2023-05-07T12:02:22;4.80;;;2.15;;
41719;SDS011;27405;53.316;-6.294;2023-05-07T12:04:49;5.88;;;2.10;;
41719;SDS011;27405;53.316;-6.294;2023-05-07T12:09:44;7.65;;;2.03;;
41719;SDS011;27405;53.316;-6.294;2023-05-07T12:12:11;4.80;;;2.10;;
41719;SDS011;27405;53.316;-6.294;2023-05-07T12:14:40;5.72;;;1.80;;
41719;SDS011;27405;53.316;-6.294;2023-05-07T12:17:08;4.70;;;1.52;;
41719;SDS011;27405;53.316;-6.294;2023-05-07T12:19:34;5.78;;;1.67;;
41719;SDS011;27405;53.316;-6.294;2023-05-07T12:22:04;5.00;;;1.50;;
41719;SDS011;27405;53.316;-6.294;2023-05-07T12:24:45;6.38;;;1.40;;
41719;SDS011;27405;53.316;-6.294;2023-05-07T12:27:29;4.47;;;1.75;;
41719;SDS011;27405;53.316;-6.294;2023-05-07T12:29:57;2.78;;;1.20;;
41719;SDS011;27405;53.316;-6.294;2023-05-07T12:32:24;4.93;;;1.17;;
41719;SDS011;27405;53.316;-6.294;2023-05-07T12:34:50;2.97;;;1.17;;
41719;SDS011;27405;53.316;-6.294;2023-05-07T12:37:16;4.20;;;1.02;;
41719;SDS011;27405;53.316;-6.294;2023-05-07T12:39:48;3.20;;;1.10;;
41719;SDS011;27405;53.316;-6.294;2023-05-07T12:42:15;3.05;;;0.75;;
41719;SDS011;27405;53.316;-6.294;2023-05-07T12:44:45;2.08;;;1.00;;
41719;SDS011;27405;53.316;-6.294;2023-05-07T12:47:11;2.95;;;1.10;;
41719;SDS011;27405;53.316;-6.294;2023-05-07T12:49:37;4.00;;;1.27;;
41719;SDS011;27405;53.316;-6.294;2023-05-07T12:52:05;3.05;;;1.00;;
41719;SDS011;27405;53.316;-6.294;2023-05-07T12:54:31;3.85;;;1.00;;
41719;SDS011;27405;53.316;-6.294;2023-05-07T12:57:04;2.75;;;0.88;;
41719;SDS011;27405;53.316;-6.294;2023-05-07T12:59:38;2.45;;;1.17;;
41719;SDS011;27405;53.316;-6.294;2023-05-07T13:02:05;1.15;;;0.90;;
41719;SDS011;27405;53.316;-6.294;2023-05-07T13:04:32;2.97;;;1.10;;
41719;SDS011;27405;53.316;-6.294;2023-05-07T13:06:58;5.80;;;1.42;;
41719;SDS011;27405;53.316;-6.294;2023-05-07T13:09:24;4.00;;;1.48;;
41719;SDS011;27405;53.316;-6.294;2023-05-07T13:11:50;5.82;;;1.30;;
41719;SDS011;27405;53.316;-6.294;2023-05-07T13:14:16;5.22;;;1.70;;
41719;SDS011;27405;53.316;-6.294;2023-05-07T13:16:41;3.85;;;1.10;;
41719;SDS011;27405;53.316;-6.294;2023-05-07T13:19:07;3.33;;;1.30;;
41719;SDS011;27405;53.316;-6.294;2023-05-07T13:21:33;10.40;;;1.73;;
41719;SDS011;27405;53.316;-6.294;2023-05-07T13:23:59;3.58;;;1.10;;
41719;SDS011;27405;53.316;-6.294;2023-05-07T13:26:25;3.55;;;1.33;;
41719;SDS011;27405;53.316;-6.294;2023-05-07T13:28:51;3.58;;;1.10;;
41719;SDS011;27405;53.316;-6.294;2023-05-07T13:31:17;5.28;;;1.35;;
41719;SDS011;27405;53.316;-6.294;2023-05-07T13:33:43;2.63;;;1.05;;
41719;SDS011;27405;53.316;-6.294;2023-05-07T13:36:09;5.72;;;1.40;;
41719;SDS011;27405;53.316;-6.294;2023-05-07T13:38:34;3.42;;;1.50;;
41719;SDS011;27405;53.316;-6.294;2023-05-07T13:41:00;4.50;;;1.52;;
41719;SDS011;27405;53.316;-6.294;2023-05-07T13:43:26;2.88;;;1.20;;
41719;SDS011;27405;53.316;-6.294;2023-05-07T13:45:52;2.03;;;1.10;;
41719;SDS011;27405;53.316;-6.294;2023-05-07T13:48:17;4.05;;;1.48;;
41719;SDS011;27405;53.316;-6.294;2023-05-07T13:50:43;3.30;;;0.98;;
41719;SDS011;27405;53.316;-6.294;2023-05-07T13:53:09;4.95;;;1.42;;
41719;SDS011;27405;53.316;-6.294;2023-05-07T13:55:35;5.25;;;1.20;;
41719;SDS011;27405;53.316;-6.294;2023-05-07T13:58:01;3.85;;;1.50;;
41719;SDS011;27405;53.316;-6.294;2023-05-07T14:00:28;5.30;;;1.40;;
41719;SDS011;27405;53.316;-6.294;2023-05-07T14:02:54;3.47;;;1.48;;
41719;SDS011;27405;53.316;-6.294;2023-05-07T14:05:21;2.58;;;1.20;;
41719;SDS011;27405;53.316;-6.294;2023-05-07T14:07:51;2.95;;;1.20;;
41719;SDS011;27405;53.316;-6.294;2023-05-07T14:10:17;2.35;;;1.20;;
41719;SDS011;27405;53.316;-6.294;2023-05-07T14:12:44;6.18;;;1.10;;
41719;SDS011;27405;53.316;-6.294;2023-05-07T14:15:10;2.33;;;1.40;;
41719;SDS011;27405;53.316;-6.294;2023-05-07T14:17:36;3.85;;;1.48;;
41719;SDS011;27405;53.316;-6.294;2023-05-07T14:20:02;3.13;;;1.38;;
41719;SDS011;27405;53.316;-6.294;2023-05-07T14:22:28;4.05;;;1.27;;
41719;SDS011;27405;53.316;-6.294;2023-05-07T14:24:54;4.10;;;1.27;;
41719;SDS011;27405;53.316;-6.294;2023-05-07T14:27:19;2.90;;;1.20;;
41719;SDS011;27405;53.316;-6.294;2023-05-07T14:29:45;2.58;;;1.02;;
41719;SDS011;27405;53.316;-6.294;2023-05-07T14:32:15;2.65;;;1.08;;
41719;SDS011;27405;53.316;-6.294;2023-05-07T14:34:44;0.95;;;0.90;;
41719;SDS011;27405;53.316;-6.294;2023-05-07T14:37:11;2.65;;;1.20;;
41719;SDS011;27405;53.316;-6.294;2023-05-07T14:39:36;4.70;;;1.40;;
41719;SDS011;27405;53.316;-6.294;2023-05-07T14:42:02;4.20;;;1.60;;